Time;durP1;ratioP1;P1;durP2;ratioP2;P2;SDS_P1;SDS_P2;PMS_P1;PMS_P2;Temp;Humidity;BMP_temperature;BMP_pressure;BME280_temperature;BME280_humidity;BME280_pressure;Samples;Min_cycle;Max_cycle;Signal;HPM_P1;HPM_P2
2023/09/30 00:01:23;;;;;;;13.70;9.50;;;;;;;16.80;75.05;100392.73;133989;1297;22482;-72
2023/09/30 00:04:48;;;;;;;14.80;9.80;;;;;;;16.82;75.33;100393.13;133941;1298;22185;-72
2023/09/30 00:07:56;;;;;;;15.40;10.30;;;;;;;16.81;75.59;100393.08;133997;1300;22346;-72
2023/09/30 00:11:11;;;;;;;15.80;10.00;;;;;;;16.77;75.99;100393.83;133961;1300;23207;-73
2023/09/30 00:14:19;;;;;;;12.80;10.20;;;;;;;16.74;76.09;100389.64;133937;1289;22277;-72
2023/09/30 00:17:46;;;;;;;13.20;10.40;;;;;;;16.66;76.39;100398.64;133864;1299;22374;-72
2023/09/30 00:20:52;;;;;;;13.00;10.10;;;;;;;16.63;76.65;100395.20;133988;1303;22484;-73
2023/09/30 00:24:04;;;;;;;15.90;10.50;;;;;;;16.56;76.96;100392.65;133976;1300;22364;-74
2023/09/30 00:27:30;;;;;;;18.60;10.60;;;;;;;16.52;77.03;100394.00;134023;1297;22420;-72
2023/09/30 00:30:33;;;;;;;18.80;10.80;;;;;;;16.50;77.21;100394.35;133869;1303;22442;-72
2023/09/30 00:34:07;;;;;;;;;;;;;;;;;;;;;
2023/09/30 00:41:20;;;;;;;;;;;;;;;16.47;78.19;100394.55;133907;1300;22506;-73
2023/09/30 00:44:47;;;;;;;14.50;9.80;;;;;;;16.44;78.50;100394.33;133893;1305;22473;-73
2023/09/30 00:48:01;;;;;;;12.40;10.30;;;;;;;16.43;78.70;100394.31;133869;1300;22580;-73
2023/09/30 00:51:15;;;;;;;18.10;10.50;;;;;;;16.45;79.07;100399.23;133919;1297;22654;-73
2023/09/30 00:57:58;;;;;;;;;;;;;;;16.45;79.46;100399.60;134028;1298;23217;-73
2023/09/30 01:01:45;;;;;;;;;;;;;;;;;;;;;
2023/09/30 01:05:02;;;;;;;15.00;10.50;;;;;;;16.45;80.02;100397.59;133864;1299;22457;-74
2023/09/30 01:08:27;;;;;;;12.10;10.00;;;;;;;16.47;80.04;100398.39;133835;1297;22369;-73
2023/09/30 01:11:34;;;;;;;18.30;11.00;;;;;;;16.50;80.33;100396.09;133863;1299;23238;-75
2023/09/30 01:14:42;;;;;;;11.10;10.00;;;;;;;16.52;80.50;100396.55;134004;1300;22227;-73
2023/09/30 01:17:51;;;;;;;15.50;10.60;;;;;;;16.54;80.71;100399.73;133983;1297;22375;-72
2023/09/30 01:20:56;;;;;;;12.90;10.60;;;;;;;16.56;80.82;100395.01;133901;1298;22543;-73
2023/09/30 01:24:00;;;;;;;14.00;9.90;;;;;;;16.56;81.04;100396.49;133977;1304;22254;-73
2023/09/30 01:27:04;;;;;;;13.50;11.10;;;;;;;16.57;81.23;100397.11;133976;1297;23434;-73
2023/09/30 01:30:18;;;;;;;15.10;10.40;;;;;;;16.58;81.45;100396.11;133938;1304;22351;-74
2023/09/30 01:33:19;;;;;;;12.00;10.30;;;;;;;16.61;81.59;100400.09;134007;1304;23079;-72
2023/09/30 01:36:20;;;;;;;14.20;10.60;;;;;;;16.62;81.64;100402.48;134001;1297;22459;-73
2023/09/30 01:39:21;;;;;;;11.60;10.40;;;;;;;16.62;81.65;100405.77;133902;1297;22436;-73
2023/09/30 01:42:22;;;;;;;17.30;10.30;;;;;;;16.65;81.67;100406.20;134032;1300;22440;-73
2023/09/30 01:45:23;;;;;;;14.50;10.60;;;;;;;16.65;81.55;100402.55;134029;1304;22496;-73
2023/09/30 01:48:26;;;;;;;17.50;10.90;;;;;;;16.67;81.65;100405.75;133971;1297;23309;-73
2023/09/30 01:51:38;;;;;;;15.10;10.50;;;;;;;16.68;81.50;100403.55;133953;1289;22533;-74
2023/09/30 01:54:42;;;;;;;11.60;10.40;;;;;;;16.73;81.57;100405.88;134025;1304;22234;-72
2023/09/30 01:57:48;;;;;;;13.60;10.30;;;;;;;16.77;81.83;100405.83;133953;1300;22478;-73
2023/09/30 02:01:15;;;;;;;15.40;10.80;;;;;;;16.80;81.54;100410.80;133984;1297;22244;-73
2023/09/30 02:04:29;;;;;;;13.70;10.30;;;;;;;16.83;81.72;100410.27;133891;1297;22408;-74
2023/09/30 02:07:42;;;;;;;12.70;9.80;;;;;;;16.86;81.87;100410.77;134014;1297;22483;-72
2023/09/30 02:11:05;;;;;;;12.20;9.90;;;;;;;16.88;81.84;100403.11;133970;1297;22439;-73
2023/09/30 02:14:31;;;;;;;13.00;10.90;;;;;;;16.91;81.86;100402.63;133938;1298;22509;-73
2023/09/30 02:17:33;;;;;;;14.70;11.00;;;;;;;16.92;82.10;100406.18;133968;1297;23194;-72
2023/09/30 02:20:34;;;;;;;13.00;10.50;;;;;;;16.94;82.16;100410.43;133879;1298;22507;-74
2023/09/30 02:23:35;;;;;;;15.50;10.70;;;;;;;16.96;82.23;100412.13;134016;1304;22964;-74
2023/09/30 02:26:45;;;;;;;17.70;11.10;;;;;;;16.98;82.10;100410.83;133905;1300;22251;-72
2023/09/30 02:29:55;;;;;;;12.40;9.80;;;;;;;16.99;82.12;100406.45;133988;1283;22446;-72
2023/09/30 02:32:59;;;;;;;15.60;10.50;;;;;;;17.02;82.08;100406.95;133985;1300;23633;-73
2023/09/30 02:36:06;;;;;;;13.20;10.70;;;;;;;17.07;82.19;100413.77;134010;1300;23491;-72
2023/09/30 02:39:16;;;;;;;17.50;10.50;;;;;;;17.10;82.39;100413.98;133985;1300;23147;-74
2023/09/30 02:42:53;;;;;;;16.00;10.70;;;;;;;17.12;82.19;100415.05;134030;1300;22277;-72
2023/09/30 02:45:58;;;;;;;15.90;10.80;;;;;;;17.14;82.09;100417.34;133889;1303;22472;-72
2023/09/30 02:49:18;;;;;;;14.30;10.70;;;;;;;17.14;82.23;100417.59;134051;1302;22497;-73
2023/09/30 02:52:21;;;;;;;15.10;10.10;;;;;;;17.15;82.14;100424.36;134074;1298;23321;-73
2023/09/30 02:55:36;;;;;;;16.60;11.40;;;;;;;17.17;82.38;100427.56;134019;1298;22424;-72
2023/09/30 02:59:03;;;;;;;12.30;10.60;;;;;;;17.17;82.42;100430.30;133999;1300;22227;-74
2023/09/30 03:02:21;;;;;;;13.00;10.10;;;;;;;17.15;82.45;100433.08;133995;1297;22261;-73
2023/09/30 03:05:47;;;;;;;15.20;9.40;;;;;;;17.17;82.52;100437.60;134053;1298;22424;-72
2023/09/30 03:09:01;;;;;;;;;;;;;;;;;;;;;
2023/09/30 03:12:18;;;;;;;11.70;10.40;;;;;;;17.21;82.31;100433.53;133906;1297;22505;-74
2023/09/30 03:15:28;;;;;;;14.20;10.00;;;;;;;17.23;82.41;100437.50;134040;1300;22415;-72
2023/09/30 03:18:37;;;;;;;12.40;9.10;;;;;;;17.24;82.32;100440.47;134047;1300;23117;-73
2023/09/30 03:21:48;;;;;;;12.10;10.70;;;;;;;17.24;82.33;100444.80;134048;1297;22304;-73
2023/09/30 03:25:11;;;;;;;;;;;;;;;;;;;;;
2023/09/30 03:28:47;;;;;;;14.80;9.40;;;;;;;17.30;82.50;100450.59;133923;1297;22490;-76
2023/09/30 03:31:58;;;;;;;12.50;9.10;;;;;;;17.31;82.44;100448.04;133946;1304;22524;-72
2023/09/30 03:35:25;;;;;;;10.60;8.90;;;;;;;17.33;82.40;100446.22;133999;1297;22411;-73
2023/09/30 03:38:50;;;;;;;14.30;9.60;;;;;;;17.34;82.38;100442.34;134054;1298;22350;-73
2023/09/30 03:42:15;;;;;;;13.10;8.70;;;;;;;17.34;82.33;100443.74;133881;1297;22236;-75
2023/09/30 03:45:43;;;;;;;12.00;8.10;;;;;;;17.33;82.39;100447.34;134044;1297;23189;-72
2023/09/30 03:49:02;;;;;;;10.10;8.40;;;;;;;17.32;82.35;100451.84;134108;1297;23648;-72
2023/09/30 03:52:06;;;;;;;9.80;8.50;;;;;;;17.32;82.33;100464.30;134075;1300;22455;-73
2023/09/30 03:55:19;;;;;;;;;;;;;;;;;;;;;
2023/09/30 03:58:42;;;;;;;;;;;;;;;;;;;;;
2023/09/30 04:01:58;;;;;;;11.30;8.10;;;;;;;17.17;82.17;100469.04;134092;1294;22220;-75
2023/09/30 04:05:11;;;;;;;16.40;8.80;;;;;;;17.13;82.25;100468.53;134006;1300;23198;-72
2023/09/30 04:08:36;;;;;;;12.90;9.30;;;;;;;17.13;82.35;100466.77;134020;1297;23141;-73
2023/09/30 04:15:35;;;;;;;13.40;9.20;;;;;;;17.10;82.43;100479.82;134040;1304;23825;-72
2023/09/30 04:19:38;;;;;;;13.90;9.80;;;;;;;17.10;82.40;100487.37;134050;1301;22366;-73
2023/09/30 04:22:38;;;;;;;14.90;10.70;;;;;;;17.07;82.54;100489.84;134020;1297;23128;-73
2023/09/30 04:25:49;;;;;;;14.70;11.70;;;;;;;17.04;82.73;100492.58;133875;1297;22418;-75
2023/09/30 04:28:55;;;;;;;15.70;10.00;;;;;;;17.02;82.90;100496.66;134078;1298;22429;-74
2023/09/30 04:32:13;;;;;;;13.10;8.40;;;;;;;17.03;83.02;100496.95;134045;1301;22518;-73
2023/09/30 04:39:07;;;;;;;11.60;8.10;;;;;;;17.03;83.12;100505.69;134044;1297;23191;-72
2023/09/30 04:42:34;;;;;;;10.00;8.00;;;;;;;17.01;83.19;100507.77;134096;1297;23041;-76
2023/09/30 04:46:06;;;;;;;;;;;;;;;;;;;;;
2023/09/30 04:49:20;;;;;;;11.40;7.50;;;;;;;16.93;83.33;100518.76;134063;1304;22114;-74
2023/09/30 04:52:38;;;;;;;;;;;;;;;;;;;;;
2023/09/30 04:55:45;;;;;;;9.90;7.30;;;;;;;16.91;83.24;100531.56;134063;1299;23091;-74
2023/09/30 04:58:58;;;;;;;13.90;8.30;;;;;;;16.89;83.17;100531.63;134074;1297;22349;-73
2023/09/30 05:02:03;;;;;;;13.20;7.40;;;;;;;16.88;83.18;100541.48;134031;1297;22589;-74
2023/09/30 05:05:06;;;;;;;13.40;8.00;;;;;;;16.86;83.21;100544.60;134071;1294;22457;-73
2023/09/30 05:08:19;;;;;;;12.70;7.60;;;;;;;16.86;83.37;100552.95;134081;1297;22493;-73
2023/09/30 05:11:28;;;;;;;12.70;8.00;;;;;;;16.82;83.31;100561.30;134060;1297;23436;-72
2023/09/30 05:14:43;;;;;;;13.40;7.40;;;;;;;16.79;83.45;100560.61;134076;1297;22461;-73
2023/09/30 05:18:08;;;;;;;11.90;7.50;;;;;;;16.79;83.70;100565.02;133932;1300;22478;-72
2023/09/30 05:21:12;;;;;;;11.10;7.60;;;;;;;16.80;84.02;100568.16;134053;1301;22442;-73
2023/09/30 05:24:19;;;;;;;11.20;7.20;;;;;;;16.82;84.12;100575.99;134074;1302;22483;-75
2023/09/30 05:27:48;;;;;;;13.60;7.90;;;;;;;16.88;84.32;100581.36;134054;1297;22300;-73
2023/09/30 05:31:39;;;;;;;;;;;;;;;;;;;;;
2023/09/30 05:34:40;;;;;;;11.10;7.10;;;;;;;16.97;84.47;100582.61;133831;1305;22210;-74
2023/09/30 05:37:54;;;;;;;11.30;7.20;;;;;;;17.00;84.63;100584.23;134036;1297;22318;-73
2023/09/30 05:41:01;;;;;;;11.80;7.80;;;;;;;17.00;84.67;100587.17;133962;1297;22273;-73
2023/09/30 05:44:14;;;;;;;10.00;7.40;;;;;;;17.04;84.74;100592.60;134100;1294;22376;-73
2023/09/30 05:47:35;;;;;;;12.40;7.30;;;;;;;17.10;84.73;100603.66;134023;1295;22389;-73
2023/09/30 05:50:36;;;;;;;11.90;7.80;;;;;;;17.14;84.82;100606.21;134056;1297;22172;-75
2023/09/30 05:53:50;;;;;;;10.40;7.10;;;;;;;17.16;84.82;100608.41;133921;1300;22470;-73
2023/09/30 05:56:51;;;;;;;15.10;7.90;;;;;;;17.20;84.91;100610.72;134085;1294;22550;-73
2023/09/30 05:59:55;;;;;;;12.40;7.90;;;;;;;17.23;84.95;100612.38;134009;1297;22484;-73
2023/09/30 06:03:02;;;;;;;14.80;7.00;;;;;;;17.29;85.01;100610.34;134026;1297;22344;-72
2023/09/30 06:06:06;;;;;;;9.60;7.00;;;;;;;17.35;85.12;100609.55;134057;1297;22363;-72
2023/09/30 06:09:07;;;;;;;13.90;7.20;;;;;;;17.40;85.26;100609.20;134040;1293;22435;-72
2023/09/30 06:12:11;;;;;;;10.10;6.70;;;;;;;17.44;85.13;100609.55;134047;1297;23006;-73
2023/09/30 06:15:21;;;;;;;10.40;6.90;;;;;;;17.48;85.08;100609.14;134035;1297;22961;-72
2023/09/30 06:18:24;;;;;;;17.00;7.70;;;;;;;17.48;84.91;100616.91;134031;1297;22915;-73
2023/09/30 06:21:28;;;;;;;14.30;7.90;;;;;;;17.48;84.91;100620.30;133826;1300;22461;-72
2023/09/30 06:24:37;;;;;;;13.20;8.00;;;;;;;17.50;84.99;100626.04;134053;1294;22377;-72
2023/09/30 06:28:07;;;;;;;12.30;7.90;;;;;;;17.50;84.98;100625.91;134007;1297;22378;-76
2023/09/30 06:31:21;;;;;;;10.90;7.00;;;;;;;17.48;84.99;100628.52;133688;1297;22419;-72
2023/09/30 06:34:48;;;;;;;10.60;6.70;;;;;;;17.48;85.05;100632.34;134009;1297;23159;-72
2023/09/30 06:37:49;;;;;;;12.00;7.00;;;;;;;17.48;85.04;100639.52;134025;1297;22482;-72
2023/09/30 06:41:19;;;;;;;10.20;6.30;;;;;;;17.46;85.33;100641.73;134007;1297;23414;-72
2023/09/30 06:44:35;;;;;;;13.90;7.20;;;;;;;17.41;85.45;100657.93;133998;1297;22302;-73
2023/09/30 06:47:53;;;;;;;8.70;3.70;;;;;;;17.35;84.92;100673.58;133784;1297;22508;-74
2023/09/30 06:51:46;;;;;;;14.40;3.60;;;;;;;17.19;83.71;100687.03;134030;1294;22383;-76
2023/09/30 06:55:11;;;;;;;7.70;3.00;;;;;;;17.03;83.18;100690.16;131732;1297;3090173;-72
2023/09/30 06:58:20;;;;;;;6.50;2.30;;;;;;;16.89;82.74;100690.84;133786;1300;23247;-73
2023/09/30 07:01:25;;;;;;;6.50;2.20;;;;;;;16.80;82.29;100700.73;134027;1297;22387;-74
2023/09/30 07:04:26;;;;;;;7.20;2.50;;;;;;;16.70;82.07;100717.37;133999;1297;22430;-72
2023/09/30 07:07:54;;;;;;;5.80;2.70;;;;;;;16.57;81.81;100725.70;134014;1300;23005;-72
2023/09/30 07:10:56;;;;;;;8.20;2.30;;;;;;;16.47;81.81;100734.47;133975;1297;22517;-72
2023/09/30 07:13:57;;;;;;;6.10;2.50;;;;;;;16.37;81.76;100743.53;133996;1300;22376;-73
2023/09/30 07:17:33;;;;;;;;;;;;;;;;;;;;;
2023/09/30 07:20:54;;;;;;;8.70;3.20;;;;;;;16.17;82.04;100759.86;133807;1298;22455;-73
2023/09/30 07:24:05;;;;;;;10.30;4.10;;;;;;;16.05;82.10;100764.48;133971;1300;22356;-74
2023/09/30 07:27:47;;;;;;;12.10;2.90;;;;;;;15.97;82.30;100767.77;133992;1296;22491;-72
2023/09/30 07:30:51;;;;;;;13.00;3.80;;;;;;;15.90;82.25;100772.20;133995;1297;23094;-73
2023/09/30 07:34:05;;;;;;;8.00;3.30;;;;;;;15.85;82.08;100783.79;134034;1300;22220;-72
2023/09/30 07:37:13;;;;;;;8.70;2.80;;;;;;;15.86;82.13;100794.92;134014;1297;22460;-72
2023/09/30 07:40:21;;;;;;;10.40;2.90;;;;;;;15.85;82.03;100801.81;134043;1296;22498;-75
2023/09/30 07:43:32;;;;;;;9.00;3.30;;;;;;;15.85;82.04;100804.13;133790;1297;22498;-72
2023/09/30 07:46:40;;;;;;;9.00;3.40;;;;;;;15.86;81.94;100805.14;134043;1294;22341;-71
2023/09/30 07:49:47;;;;;;;8.40;2.80;;;;;;;15.86;81.74;100809.24;134023;1297;22393;-73
2023/09/30 07:52:58;;;;;;;12.70;3.60;;;;;;;15.85;81.74;100813.59;134017;1299;22353;-73
2023/09/30 07:56:02;;;;;;;7.60;2.80;;;;;;;15.84;81.61;100818.70;134032;1297;23067;-72
2023/09/30 07:59:15;;;;;;;10.00;3.00;;;;;;;15.84;81.97;100819.67;134023;1291;22377;-71
2023/09/30 08:02:33;;;;;;;;;;;;;;;;;;;;;
2023/09/30 08:05:47;;;;;;;7.70;2.60;;;;;;;15.89;82.20;100820.61;133991;1300;22247;-73
2023/09/30 08:09:09;;;;;;;11.20;2.90;;;;;;;15.95;82.38;100822.45;134029;1303;23039;-72
2023/09/30 08:12:31;;;;;;;;;;;;;;;;;;;;;
2023/09/30 08:16:13;;;;;;;8.10;3.20;;;;;;;16.01;82.20;100821.23;133785;1301;22393;-72
2023/09/30 08:19:22;;;;;;;8.30;3.40;;;;;;;16.05;82.21;100821.73;134043;1298;22110;-76
2023/09/30 08:23:04;;;;;;;6.30;3.20;;;;;;;16.10;82.20;100817.19;134009;1298;22416;-75
2023/09/30 08:26:13;;;;;;;8.40;3.60;;;;;;;16.16;82.18;100819.00;134002;1300;22375;-77
2023/09/30 08:29:24;;;;;;;8.60;4.80;;;;;;;16.20;81.75;100821.69;134058;1299;22509;-77
2023/09/30 08:36:55;;;;;;;10.40;5.30;;;;;;;16.20;80.74;100826.35;133664;1300;22507;-75
2023/09/30 08:40:30;;;;;;;7.60;4.90;;;;;;;16.22;80.49;100834.69;133902;1298;22399;-74
2023/09/30 08:44:09;;;;;;;12.00;5.80;;;;;;;16.25;80.08;100842.42;133969;1297;22492;-75
2023/09/30 08:47:47;;;;;;;12.50;5.50;;;;;;;16.28;79.91;100849.88;133914;1302;22403;-79
2023/09/30 08:51:02;;;;;;;12.60;5.80;;;;;;;16.33;79.65;100848.30;133837;1297;22391;-76
2023/09/30 08:54:07;;;;;;;8.70;5.30;;;;;;;16.37;79.02;100853.96;134006;1300;22292;-75
2023/09/30 08:57:14;;;;;;;9.20;5.40;;;;;;;16.37;78.80;100860.38;133728;1297;22714;-78
2023/09/30 09:00:56;;;;;;;;;;;;;;;;;;;;;
2023/09/30 09:04:08;;;;;;;12.10;5.20;;;;;;;16.44;78.99;100865.23;133809;1298;23242;-77
2023/09/30 09:07:46;;;;;;;;;;;;;;;;;;;;;
2023/09/30 09:11:17;;;;;;;10.70;4.90;;;;;;;16.72;78.15;100875.98;133899;1297;22935;-78
2023/09/30 09:15:01;;;;;;;8.80;5.00;;;;;;;16.93;77.31;100881.59;133917;1304;22496;-75
2023/09/30 09:18:30;;;;;;;9.80;4.10;;;;;;;17.36;76.31;100890.70;134009;1300;22451;-74
2023/09/30 09:22:04;;;;;;;11.00;3.60;;;;;;;18.04;75.00;100890.69;134009;1296;22465;-76
2023/09/30 09:25:29;;;;;;;8.40;4.20;;;;;;;18.56;73.12;100902.56;133673;1298;23136;-75
2023/09/30 09:29:06;;;;;;;12.30;3.70;;;;;;;18.88;71.77;100899.64;133751;1299;22479;-75
2023/09/30 09:32:16;;;;;;;13.80;3.40;;;;;;;19.32;69.81;100902.44;133683;1298;23124;-79
2023/09/30 09:35:41;;;;;;;;;;;;;;;;;;;;;
2023/09/30 09:38:53;;;;;;;12.90;3.70;;;;;;;19.69;66.80;100912.74;133937;1298;22396;-76
2023/09/30 09:42:14;;;;;;;;;;;;;;;;;;;;;
2023/09/30 09:45:20;;;;;;;13.70;3.50;;;;;;;19.83;62.19;100914.80;133779;1300;23224;-75
2023/09/30 09:48:42;;;;;;;12.60;3.50;;;;;;;19.78;61.87;100910.58;134008;1294;22299;-77
2023/09/30 09:52:48;;;;;;;8.70;3.90;;;;;;;20.00;61.96;100910.31;133931;1298;22378;-79
2023/09/30 09:59:52;;;;;;;;;;;;;;;;;;;;;
2023/09/30 10:02:58;;;;;;;13.30;4.50;;;;;;;20.30;58.39;100909.09;133974;1299;22946;-79
2023/09/30 10:06:05;;;;;;;12.90;4.90;;;;;;;20.52;59.39;100914.84;134017;1298;22481;-81
2023/09/30 10:09:14;;;;;;;14.90;4.80;;;;;;;20.86;58.98;100906.66;133943;1298;23199;-79
2023/09/30 10:12:25;;;;;;;12.50;4.70;;;;;;;21.06;57.76;100903.08;133640;1306;22376;-81
2023/09/30 10:15:59;;;;;;;12.00;3.40;;;;;;;20.97;56.84;100906.56;134014;1298;22422;-78
2023/09/30 10:19:38;;;;;;;9.10;3.40;;;;;;;21.09;56.37;100909.70;133881;1298;23030;-79
2023/09/30 10:22:42;;;;;;;12.30;3.20;;;;;;;21.00;55.24;100908.38;133683;1305;23647;-75
2023/09/30 10:26:00;;;;;;;;;;;;;;;;;;;;;
2023/09/30 10:29:42;;;;;;;9.50;3.20;;;;;;;20.84;55.91;100894.73;133856;1299;22430;-85
2023/09/30 10:33:29;;;;;;;;;;;;;;;;;;;;;
2023/09/30 10:36:41;;;;;;;8.30;2.60;;;;;;;20.94;54.81;100894.24;133798;1301;22255;-80
2023/09/30 10:40:59;;;;;;;6.00;2.80;;;;;;;21.11;54.22;100895.06;133670;1301;22413;-82
2023/09/30 10:44:25;;;;;;;7.60;2.50;;;;;;;21.35;53.70;100894.37;133394;1305;22161;-79
2023/09/30 10:47:34;;;;;;;10.50;2.80;;;;;;;21.41;53.30;100893.77;133804;1303;22207;-79
2023/09/30 10:51:15;;;;;;;10.00;2.90;;;;;;;21.55;52.59;100892.50;133831;1303;22235;-81
2023/09/30 10:54:35;;;;;;;11.20;3.20;;;;;;;21.60;50.50;100894.02;133791;1303;23628;-81
2023/09/30 10:57:43;;;;;;;8.80;3.10;;;;;;;21.59;50.33;100892.67;134013;1288;22424;-81
2023/09/30 11:01:01;;;;;;;11.00;3.40;;;;;;;21.53;50.42;100904.14;133714;1298;22422;-79
2023/09/30 11:05:12;;;;;;;10.10;3.20;;;;;;;21.21;50.40;100914.06;133954;1297;22295;-79
2023/09/30 11:08:24;;;;;;;5.70;2.70;;;;;;;20.81;50.00;100915.15;133760;1302;22487;-77
2023/09/30 11:11:37;;;;;;;8.60;3.30;;;;;;;20.46;50.23;100918.59;133948;1297;22404;-80
2023/09/30 11:14:41;;;;;;;15.20;4.20;;;;;;;20.35;50.53;100920.19;133975;1298;23212;-79
2023/09/30 11:17:48;;;;;;;10.30;3.10;;;;;;;20.23;50.74;100924.24;133703;1301;22394;-83
2023/09/30 11:21:04;;;;;;;10.10;3.30;;;;;;;20.02;50.61;100927.48;133742;1297;22351;-80
2023/09/30 11:24:34;;;;;;;;;;;;;;;;;;;;;
2023/09/30 11:28:13;;;;;;;12.80;4.20;;;;;;;19.53;50.77;100925.05;133798;1298;22367;-80
2023/09/30 11:34:49;;;;;;;8.40;2.90;;;;;;;20.14;50.91;100922.10;133931;1300;22400;-80
2023/09/30 11:38:48;;;;;;;;;;;;;;;;;;;;;
2023/09/30 11:42:02;;;;;;;6.70;3.10;;;;;;;20.26;49.51;100924.61;133887;1297;22276;-84
2023/09/30 11:45:31;;;;;;;8.70;3.10;;;;;;;20.10;49.27;100925.80;134016;1298;22497;-89
2023/09/30 11:49:24;;;;;;;;;;;;;;;;;;;;;
2023/09/30 11:52:49;;;;;;;7.70;3.30;;;;;;;19.54;50.06;100921.70;133992;1300;23137;-79
2023/09/30 11:55:50;;;;;;;13.60;4.20;;;;;;;19.42;50.48;100917.41;133991;1298;22374;-81
2023/09/30 12:00:04;;;;;;;;;;;;;;;;;;;;;
2023/09/30 12:04:42;;;;;;;13.10;4.10;;;;;;;19.33;51.55;100923.61;134001;1298;22421;-84
2023/09/30 12:09:02;;;;;;;12.40;3.10;;;;;;;19.32;51.87;100928.84;133893;1300;22427;-87
2023/09/30 12:16:51;;;;;;;;;;;;;;;;;;;;;
2023/09/30 12:20:31;;;;;;;;;;;;;;;;;;;;;
2023/09/30 12:24:12;;;;;;;;;;;;;;;;;;;;;
2023/09/30 12:27:28;;;;;;;9.30;3.60;;;;;;;19.87;51.49;100933.02;133964;1298;22402;-88
2023/09/30 12:31:40;;;;;;;;;;;;;;;;;;;;;
2023/09/30 12:35:10;;;;;;;;;;;;;;;;;;;;;
2023/09/30 12:38:39;;;;;;;9.20;3.60;;;;;;;20.28;50.91;100935.66;133805;1297;22574;-75
2023/09/30 12:42:09;;;;;;;10.90;3.50;;;;;;;20.28;50.93;100925.76;133962;1297;22588;-76
2023/09/30 12:45:53;;;;;;;8.30;3.30;;;;;;;20.34;50.88;100919.52;133999;1300;22312;-77
2023/09/30 12:49:31;;;;;;;8.70;3.40;;;;;;;20.38;50.37;100916.20;133856;1298;22385;-72
2023/09/30 12:53:08;;;;;;;9.30;3.30;;;;;;;20.25;50.61;100923.79;133905;1297;22246;-75
2023/09/30 12:56:11;;;;;;;15.80;4.10;;;;;;;20.26;50.62;100926.17;133807;1298;22930;-73
2023/09/30 12:59:29;;;;;;;;;;;;;;;;;;;;;
2023/09/30 13:02:50;;;;;;;11.20;3.60;;;;;;;20.29;50.09;100927.66;133788;1304;22209;-76
2023/09/30 13:05:59;;;;;;;10.20;4.50;;;;;;;20.24;50.12;100928.37;133759;1304;22461;-75
2023/09/30 13:09:11;;;;;;;;;;;;;;;;;;;;;
2023/09/30 13:12:53;;;;;;;11.10;4.00;;;;;;;20.07;50.25;100936.24;133817;1305;22598;-76
2023/09/30 13:16:25;;;;;;;8.40;3.60;;;;;;;20.11;49.65;100936.00;133341;1304;22402;-76
2023/09/30 13:19:46;;;;;;;9.00;3.70;;;;;;;20.13;49.69;100930.02;133838;1303;22424;-77
2023/09/30 13:22:53;;;;;;;8.60;3.30;;;;;;;20.10;49.46;100927.62;133749;1300;22264;-74
2023/09/30 13:25:54;;;;;;;12.60;3.70;;;;;;;20.08;49.73;100928.11;133549;1299;22385;-75
2023/09/30 13:29:01;;;;;;;5.70;2.80;;;;;;;20.11;49.66;100933.01;133869;1299;22456;-77
2023/09/30 13:32:03;;;;;;;11.00;3.20;;;;;;;20.08;49.25;100936.16;133848;1303;22369;-74
2023/09/30 13:35:06;;;;;;;7.80;3.20;;;;;;;19.96;48.98;100938.87;133509;1299;22376;-74
2023/09/30 13:38:15;;;;;;;9.20;2.70;;;;;;;19.83;49.15;100937.80;133860;1304;22214;-77
2023/09/30 13:41:46;;;;;;;8.70;2.80;;;;;;;19.66;49.02;100930.38;133672;1298;22389;-76
2023/09/30 13:44:48;;;;;;;7.90;2.90;;;;;;;19.50;49.18;100928.39;133753;1298;23321;-79
2023/09/30 13:47:49;;;;;;;8.70;3.00;;;;;;;19.43;49.40;100934.31;133679;1299;22432;-76
2023/09/30 13:55:19;;;;;;;9.50;3.60;;;;;;;19.54;49.34;100930.40;133505;1302;22292;-77
2023/09/30 13:59:03;;;;;;;;;;;;;;;;;;;;;
2023/09/30 14:02:13;;;;;;;15.50;4.30;;;;;;;19.33;48.09;100928.02;133452;1301;22409;-76
2023/09/30 14:05:38;;;;;;;11.10;3.40;;;;;;;19.09;48.16;100934.54;133423;1306;22336;-77
2023/09/30 14:08:53;;;;;;;;;;;;;;;;;;;;;
2023/09/30 14:11:58;;;;;;;9.00;3.30;;;;;;;18.76;48.68;100942.77;133340;1308;23064;-77
2023/09/30 14:15:02;;;;;;;8.40;3.50;;;;;;;18.64;49.12;100933.64;133376;1307;22274;-76
2023/09/30 14:18:15;;;;;;;10.20;3.10;;;;;;;18.55;49.25;100934.89;133518;1302;23264;-77
2023/09/30 14:21:46;;;;;;;10.50;3.70;;;;;;;18.51;49.35;100931.39;133369;1306;22229;-77
2023/09/30 14:24:50;;;;;;;11.10;3.20;;;;;;;18.50;49.55;100932.25;133438;1303;23291;-77
2023/09/30 14:27:51;;;;;;;12.30;3.20;;;;;;;18.45;49.66;100933.30;133444;1298;22398;-78
2023/09/30 14:30:53;;;;;;;7.20;2.60;;;;;;;18.36;49.75;100934.16;133833;1299;22422;-77
2023/09/30 14:33:54;;;;;;;11.00;3.40;;;;;;;18.26;49.49;100939.39;133618;1299;22197;-77
2023/09/30 14:37:03;;;;;;;10.30;3.70;;;;;;;18.14;49.75;100941.30;133834;1301;22460;-77
2023/09/30 14:40:25;;;;;;;8.90;3.00;;;;;;;18.05;49.89;100941.61;133791;1300;22375;-78
2023/09/30 14:43:40;;;;;;;11.00;3.90;;;;;;;18.01;50.20;100942.70;133724;1298;22534;-77
2023/09/30 14:46:45;;;;;;;10.60;3.80;;;;;;;17.95;49.97;100945.05;133755;1298;22631;-76
2023/09/30 14:49:51;;;;;;;14.80;4.70;;;;;;;17.88;50.29;100947.10;133768;1298;22473;-78
2023/09/30 14:52:55;;;;;;;11.40;4.20;;;;;;;17.82;50.51;100941.84;133835;1299;22459;-76
2023/09/30 14:59:33;;;;;;;8.40;2.90;;;;;;;17.62;50.78;100938.59;133658;1301;22388;-77
2023/09/30 15:02:38;;;;;;;10.80;3.90;;;;;;;17.51;51.11;100942.29;133951;1301;22396;-77
2023/09/30 15:05:42;;;;;;;9.20;3.40;;;;;;;17.43;51.32;100948.48;133778;1304;22285;-77
2023/09/30 15:08:48;;;;;;;12.60;3.50;;;;;;;17.36;51.50;100954.69;133787;1297;22373;-77
2023/09/30 15:11:52;;;;;;;8.80;3.50;;;;;;;17.31;51.83;100950.51;133879;1304;23469;-76
2023/09/30 15:14:58;;;;;;;9.50;3.80;;;;;;;17.25;52.03;100953.71;133963;1297;22488;-77
2023/09/30 15:18:11;;;;;;;13.50;4.10;;;;;;;17.20;52.12;100957.02;133920;1297;22448;-76
2023/09/30 15:21:19;;;;;;;11.80;3.60;;;;;;;17.20;52.55;100956.91;133963;1300;22264;-77
2023/09/30 15:24:26;;;;;;;9.90;3.40;;;;;;;17.21;52.81;100948.85;133768;1298;22526;-77
2023/09/30 15:27:42;;;;;;;10.20;3.40;;;;;;;17.27;52.99;100949.98;133814;1300;22501;-78
2023/09/30 15:30:51;;;;;;;10.90;3.40;;;;;;;17.35;53.27;100949.94;133946;1297;22393;-78
2023/09/30 15:33:58;;;;;;;12.40;3.60;;;;;;;17.40;53.32;100954.33;133876;1300;22470;-76
2023/09/30 15:37:00;;;;;;;11.40;3.70;;;;;;;17.43;53.41;100954.55;133862;1301;23139;-75
2023/09/30 15:40:35;;;;;;;;;;;;;;;;;;;;;
2023/09/30 15:44:00;;;;;;;8.10;3.30;;;;;;;17.44;53.58;100961.70;133903;1303;24607;-74
2023/09/30 15:47:08;;;;;;;10.00;3.20;;;;;;;17.42;53.74;100963.59;133917;1297;22525;-74
2023/09/30 15:50:27;;;;;;;;;;;;;;;17.39;53.84;100968.47;133840;1299;22666;-74
2023/09/30 15:53:44;;;;;;;16.50;3.70;;;;;;;17.33;54.04;100969.97;134049;1304;22140;-73
2023/09/30 15:56:55;;;;;;;12.40;3.40;;;;;;;17.24;54.64;100972.88;134028;1297;22306;-74
2023/09/30 15:59:56;;;;;;;13.10;3.80;;;;;;;17.13;54.57;100978.00;134042;1298;22383;-73
2023/09/30 16:03:15;;;;;;;10.80;3.30;;;;;;;17.06;54.61;100980.77;133998;1297;23119;-73
2023/09/30 16:06:17;;;;;;;10.50;3.50;;;;;;;16.99;54.53;100987.98;133840;1299;22361;-73
2023/09/30 16:09:26;;;;;;;13.60;3.00;;;;;;;16.93;54.54;100986.63;133976;1304;23019;-72
2023/09/30 16:12:38;;;;;;;13.00;4.20;;;;;;;16.85;54.67;100984.73;133833;1303;22515;-75
2023/09/30 16:15:58;;;;;;;10.40;3.30;;;;;;;16.74;54.94;100986.94;133934;1301;22366;-73
2023/09/30 16:19:06;;;;;;;9.30;3.10;;;;;;;16.65;55.20;100989.61;133974;1298;23095;-74
2023/09/30 16:22:07;;;;;;;10.50;4.20;;;;;;;16.53;55.39;100989.65;134035;1299;23030;-76
2023/09/30 16:25:09;;;;;;;10.90;4.20;;;;;;;16.47;55.80;100997.86;133941;1300;23205;-78
2023/09/30 16:28:10;;;;;;;10.50;4.00;;;;;;;16.44;55.94;100998.97;133982;1300;23705;-73
2023/09/30 16:31:18;;;;;;;13.90;4.60;;;;;;;16.39;56.13;101000.79;133830;1298;22410;-74
2023/09/30 16:34:27;;;;;;;11.40;4.10;;;;;;;16.39;56.67;101003.10;133869;1304;22212;-74